sensor_id;sensor_type;location;lat;lon;timestamp;pressure;altitude;pressure_sealevel;temperature;humidity
65997;BME280;52765;52.258;21.052;2022-08-19T00:00:25;100305.63;;;24.01;88.77
65997;BME280;52765;52.258;21.052;2022-08-19T00:02:50;100303.09;;;24.00;89.08
65997;BME280;52765;52.258;21.052;2022-08-19T00:05:17;100300.13;;;24.01;89.01
65997;BME280;52765;52.258;21.052;2022-08-19T00:07:43;100306.94;;;23.99;88.75
65997;BME280;52765;52.258;21.052;2022-08-19T00:10:10;100304.41;;;23.97;89.24
65997;BME280;52765;52.258;21.052;2022-08-19T00:12:36;100311.25;;;23.95;89.18
65997;BME280;52765;52.258;21.052;2022-08-19T00:15:05;100292.41;;;23.87;89.59
65997;BME280;52765;52.258;21.052;2022-08-19T00:17:32;100292.66;;;23.85;89.59
65997;BME280;52765;52.258;21.052;2022-08-19T00:19:57;100287.03;;;23.80;90.21
65997;BME280;52765;52.258;21.052;2022-08-19T00:22:23;100292.06;;;23.42;91.94
65997;BME280;52765;52.258;21.052;2022-08-19T00:24:49;100303.19;;;23.36;92.49
65997;BME280;52765;52.258;21.052;2022-08-19T00:27:14;100300.56;;;23.29;92.85
65997;BME280;52765;52.258;21.052;2022-08-19T00:29:41;100289.84;;;23.16;93.55
65997;BME280;52765;52.258;21.052;2022-08-19T00:32:06;100308.34;;;23.20;93.53
65997;BME280;52765;52.258;21.052;2022-08-19T00:34:32;100298.31;;;23.14;93.77
65997;BME280;52765;52.258;21.052;2022-08-19T00:36:58;100306.34;;;23.16;93.96
65997;BME280;52765;52.258;21.052;2022-08-19T00:39:25;100292.81;;;23.02;94.22
65997;BME280;52765;52.258;21.052;2022-08-19T00:41:51;100294.75;;;23.02;94.25
65997;BME280;52765;52.258;21.052;2022-08-19T00:44:21;100288.28;;;22.96;94.36
65997;BME280;52765;52.258;21.052;2022-08-19T00:46:49;100299.03;;;22.98;94.28
65997;BME280;52765;52.258;21.052;2022-08-19T00:49:20;100300.94;;;22.97;94.28
65997;BME280;52765;52.258;21.052;2022-08-19T00:51:51;100302.00;;;22.96;94.14
65997;BME280;52765;52.258;21.052;2022-08-19T00:54:19;100277.53;;;22.83;94.09
65997;BME280;52765;52.258;21.052;2022-08-19T00:56:45;100298.19;;;22.97;94.49
65997;BME280;52765;52.258;21.052;2022-08-19T00:59:11;100286.00;;;22.93;94.32
65997;BME280;52765;52.258;21.052;2022-08-19T01:01:40;100277.53;;;22.83;94.04
65997;BME280;52765;52.258;21.052;2022-08-19T01:04:06;100303.59;;;22.92;94.90
65997;BME280;52765;52.258;21.052;2022-08-19T01:06:32;100311.22;;;22.90;95.10
65997;BME280;52765;52.258;21.052;2022-08-19T01:08:59;100281.97;;;22.72;95.36
65997;BME280;52765;52.258;21.052;2022-08-19T01:11:27;100305.47;;;22.80;95.65
65997;BME280;52765;52.258;21.052;2022-08-19T01:13:53;100304.53;;;22.74;95.85
65997;BME280;52765;52.258;21.052;2022-08-19T01:16:21;100293.31;;;22.64;96.17
65997;BME280;52765;52.258;21.052;2022-08-19T01:18:48;100317.78;;;22.77;96.59
65997;BME280;52765;52.258;21.052;2022-08-19T01:21:39;100293.56;;;22.62;96.55
65997;BME280;52765;52.258;21.052;2022-08-19T01:24:05;100299.50;;;22.59;96.53
65997;BME280;52765;52.258;21.052;2022-08-19T01:26:38;100307.63;;;22.66;96.92
65997;BME280;52765;52.258;21.052;2022-08-19T01:29:06;100299.28;;;22.61;97.22
65997;BME280;52765;52.258;21.052;2022-08-19T01:31:33;100312.41;;;22.70;97.24
65997;BME280;52765;52.258;21.052;2022-08-19T01:34:00;100297.84;;;22.58;97.17
65997;BME280;52765;52.258;21.052;2022-08-19T01:36:30;100314.56;;;22.68;97.87
65997;BME280;52765;52.258;21.052;2022-08-19T01:38:57;100310.84;;;22.63;98.15
65997;BME280;52765;52.258;21.052;2022-08-19T01:41:23;100309.66;;;22.59;98.59
65997;BME280;52765;52.258;21.052;2022-08-19T01:43:50;100316.56;;;22.61;98.48
65997;BME280;52765;52.258;21.052;2022-08-19T01:46:16;100303.81;;;22.55;98.49
65997;BME280;52765;52.258;21.052;2022-08-19T01:48:43;100311.94;;;22.62;98.49
65997;BME280;52765;52.258;21.052;2022-08-19T01:51:10;100320.66;;;22.59;98.79
65997;BME280;52765;52.258;21.052;2022-08-19T01:53:36;100304.75;;;22.49;98.88
65997;BME280;52765;52.258;21.052;2022-08-19T01:56:03;100294.72;;;22.43;99.32
65997;BME280;52765;52.258;21.052;2022-08-19T01:58:35;100311.53;;;22.46;99.53
65997;BME280;52765;52.258;21.052;2022-08-19T02:01:03;100310.47;;;22.47;99.51
65997;BME280;52765;52.258;21.052;2022-08-19T02:03:29;100298.78;;;22.40;99.60
65997;BME280;52765;52.258;21.052;2022-08-19T02:05:57;100278.25;;;22.31;99.92
65997;BME280;52765;52.258;21.052;2022-08-19T02:08:24;100305.09;;;22.41;99.41
65997;BME280;52765;52.258;21.052;2022-08-19T02:10:49;100305.69;;;22.43;99.66
65997;BME280;52765;52.258;21.052;2022-08-19T02:13:15;100274.97;;;22.22;99.62
65997;BME280;52765;52.258;21.052;2022-08-19T02:15:41;100285.72;;;22.24;100.00
65997;BME280;52765;52.258;21.052;2022-08-19T02:18:07;100279.25;;;22.18;99.96
65997;BME280;52765;52.258;21.052;2022-08-19T02:20:33;100268.63;;;22.10;99.67
65997;BME280;52765;52.258;21.052;2022-08-19T02:22:59;100290.34;;;22.23;99.69
65997;BME280;52765;52.258;21.052;2022-08-19T02:25:26;100277.59;;;22.17;100.00
65997;BME280;52765;52.258;21.052;2022-08-19T02:27:51;100271.84;;;22.07;99.98
65997;BME280;52765;52.258;21.052;2022-08-19T02:30:18;100288.44;;;22.12;99.95
65997;BME280;52765;52.258;21.052;2022-08-19T02:32:44;100299.53;;;22.17;100.00
65997;BME280;52765;52.258;21.052;2022-08-19T02:35:10;100276.72;;;22.05;100.00
65997;BME280;52765;52.258;21.052;2022-08-19T02:37:36;100269.81;;;22.02;100.00
65997;BME280;52765;52.258;21.052;2022-08-19T02:40:20;100282.97;;;22.12;100.00
65997;BME280;52765;52.258;21.052;2022-08-19T02:42:46;100278.53;;;22.11;100.00
65997;BME280;52765;52.258;21.052;2022-08-19T02:45:13;100284.59;;;22.13;100.00
65997;BME280;52765;52.258;21.052;2022-08-19T02:47:39;100276.81;;;21.98;100.00
65997;BME280;52765;52.258;21.052;2022-08-19T02:50:05;100265.59;;;21.88;100.00
65997;BME280;52765;52.258;21.052;2022-08-19T02:52:32;100279.16;;;21.83;100.00
65997;BME280;52765;52.258;21.052;2022-08-19T02:54:58;100286.09;;;21.85;100.00
65997;BME280;52765;52.258;21.052;2022-08-19T02:57:25;100277.56;;;21.75;100.00
65997;BME280;52765;52.258;21.052;2022-08-19T02:59:51;100277.13;;;21.78;100.00
65997;BME280;52765;52.258;21.052;2022-08-19T03:02:17;100287.16;;;21.84;100.00
65997;BME280;52765;52.258;21.052;2022-08-19T03:04:42;100279.25;;;21.76;100.00
65997;BME280;52765;52.258;21.052;2022-08-19T03:07:09;100263.59;;;21.65;100.00
65997;BME280;52765;52.258;21.052;2022-08-19T03:09:37;100282.59;;;21.78;100.00
65997;BME280;52765;52.258;21.052;2022-08-19T03:12:03;100291.81;;;21.84;100.00
65997;BME280;52765;52.258;21.052;2022-08-19T03:14:33;100289.31;;;21.82;100.00
65997;BME280;52765;52.258;21.052;2022-08-19T03:16:59;100272.19;;;21.68;100.00
65997;BME280;52765;52.258;21.052;2022-08-19T03:19:25;100284.88;;;21.81;100.00
65997;BME280;52765;52.258;21.052;2022-08-19T03:21:51;100293.94;;;21.81;100.00
65997;BME280;52765;52.258;21.052;2022-08-19T03:24:18;100273.63;;;21.71;100.00
65997;BME280;52765;52.258;21.052;2022-08-19T03:26:49;100264.44;;;21.65;100.00
65997;BME280;52765;52.258;21.052;2022-08-19T03:29:16;100273.88;;;21.69;100.00
65997;BME280;52765;52.258;21.052;2022-08-19T03:31:43;100280.56;;;21.73;100.00
65997;BME280;52765;52.258;21.052;2022-08-19T03:34:16;100299.41;;;21.81;100.00
65997;BME280;52765;52.258;21.052;2022-08-19T03:36:43;100270.75;;;21.66;100.00
65997;BME280;52765;52.258;21.052;2022-08-19T03:39:40;100297.53;;;21.82;100.00
65997;BME280;52765;52.258;21.052;2022-08-19T03:42:08;100304.91;;;21.81;100.00
65997;BME280;52765;52.258;21.052;2022-08-19T03:44:34;100295.47;;;21.77;100.00
65997;BME280;52765;52.258;21.052;2022-08-19T03:47:02;100282.31;;;21.68;100.00
65997;BME280;52765;52.258;21.052;2022-08-19T03:49:30;100305.28;;;21.85;100.00
65997;BME280;52765;52.258;21.052;2022-08-19T03:51:58;100292.38;;;21.74;100.00
65997;BME280;52765;52.258;21.052;2022-08-19T03:54:30;100303.00;;;21.82;100.00
65997;BME280;52765;52.258;21.052;2022-08-19T03:56:56;100305.16;;;21.80;100.00
65997;BME280;52765;52.258;21.052;2022-08-19T03:59:25;100299.19;;;21.83;100.00
65997;BME280;52765;52.258;21.052;2022-08-19T04:01:56;100313.19;;;21.93;100.00
65997;BME280;52765;52.258;21.052;2022-08-19T04:04:22;100322.38;;;21.99;100.00
65997;BME280;52765;52.258;21.052;2022-08-19T04:06:48;100307.22;;;21.96;100.00
65997;BME280;52765;52.258;21.052;2022-08-19T04:09:14;100290.72;;;21.85;100.00
65997;BME280;52765;52.258;21.052;2022-08-19T04:11:51;100315.97;;;22.05;100.00
65997;BME280;52765;52.258;21.052;2022-08-19T04:14:25;100296.00;;;21.98;100.00
65997;BME280;52765;52.258;21.052;2022-08-19T04:16:52;100317.41;;;22.08;100.00
65997;BME280;52765;52.258;21.052;2022-08-19T04:19:19;100304.53;;;22.08;100.00
65997;BME280;52765;52.258;21.052;2022-08-19T04:21:49;100304.28;;;22.10;100.00
65997;BME280;52765;52.258;21.052;2022-08-19T04:24:15;100310.75;;;22.15;99.73
65997;BME280;52765;52.258;21.052;2022-08-19T04:26:41;100282.69;;;22.02;99.57
65997;BME280;52765;52.258;21.052;2022-08-19T04:29:11;100297.88;;;22.16;99.34
65997;BME280;52765;52.258;21.052;2022-08-19T04:31:37;100280.69;;;22.09;98.91
65997;BME280;52765;52.258;21.052;2022-08-19T04:34:04;100300.50;;;22.23;98.89
65997;BME280;52765;52.258;21.052;2022-08-19T04:36:34;100306.34;;;22.26;98.77
65997;BME280;52765;52.258;21.052;2022-08-19T04:39:06;100296.03;;;22.28;98.64
65997;BME280;52765;52.258;21.052;2022-08-19T04:41:32;100308.56;;;22.36;98.42
65997;BME280;52765;52.258;21.052;2022-08-19T04:44:16;100307.50;;;22.49;97.64
65997;BME280;52765;52.258;21.052;2022-08-19T04:46:49;100312.41;;;22.59;97.26
65997;BME280;52765;52.258;21.052;2022-08-19T04:49:20;100301.56;;;22.64;96.86
65997;BME280;52765;52.258;21.052;2022-08-19T04:51:50;100282.81;;;22.72;95.86
65997;BME280;52765;52.258;21.052;2022-08-19T04:54:20;100280.91;;;22.85;95.55
65997;BME280;52765;52.258;21.052;2022-08-19T04:56:52;100295.72;;;23.07;95.00
65997;BME280;52765;52.258;21.052;2022-08-19T04:59:19;100302.41;;;23.12;94.51
65997;BME280;52765;52.258;21.052;2022-08-19T05:01:46;100309.06;;;23.27;93.87
65997;BME280;52765;52.258;21.052;2022-08-19T05:04:17;100292.22;;;23.24;93.66
65997;BME280;52765;52.258;21.052;2022-08-19T05:06:43;100289.34;;;23.31;93.46
65997;BME280;52765;52.258;21.052;2022-08-19T05:09:08;100286.56;;;23.42;92.46
65997;BME280;52765;52.258;21.052;2022-08-19T05:11:36;100309.84;;;23.92;90.00
65997;BME280;52765;52.258;21.052;2022-08-19T05:14:05;100282.22;;;23.87;89.66
65997;BME280;52765;52.258;21.052;2022-08-19T05:16:31;100276.00;;;23.92;89.28
65997;BME280;52765;52.258;21.052;2022-08-19T05:18:57;100298.13;;;24.14;89.41
65997;BME280;52765;52.258;21.052;2022-08-19T05:21:43;100290.84;;;24.08;89.38
65997;BME280;52765;52.258;21.052;2022-08-19T05:24:28;100297.28;;;24.13;88.94
65997;BME280;52765;52.258;21.052;2022-08-19T05:26:55;100296.94;;;24.10;88.77
65997;BME280;52765;52.258;21.052;2022-08-19T05:29:23;100304.44;;;24.14;88.62
65997;BME280;52765;52.258;21.052;2022-08-19T05:31:49;100314.13;;;24.17;88.48
65997;BME280;52765;52.258;21.052;2022-08-19T05:34:17;100298.38;;;24.12;87.99
65997;BME280;52765;52.258;21.052;2022-08-19T05:36:46;100327.81;;;24.29;88.13
65997;BME280;52765;52.258;21.052;2022-08-19T05:39:19;100316.56;;;24.30;88.18
65997;BME280;52765;52.258;21.052;2022-08-19T05:41:52;100319.78;;;24.10;89.49
65997;BME280;52765;52.258;21.052;2022-08-19T05:44:19;100336.47;;;24.04;89.72
65997;BME280;52765;52.258;21.052;2022-08-19T05:46:46;100332.03;;;24.02;90.15
65997;BME280;52765;52.258;21.052;2022-08-19T05:49:14;100342.47;;;24.17;89.66
65997;BME280;52765;52.258;21.052;2022-08-19T05:51:41;100327.06;;;24.16;89.54
65997;BME280;52765;52.258;21.052;2022-08-19T05:54:08;100322.06;;;24.13;88.61
65997;BME280;52765;52.258;21.052;2022-08-19T05:56:34;100324.91;;;24.18;88.50
65997;BME280;52765;52.258;21.052;2022-08-19T05:59:05;100344.63;;;24.61;87.06
65997;BME280;52765;52.258;21.052;2022-08-19T06:01:35;100315.78;;;24.64;86.36
65997;BME280;52765;52.258;21.052;2022-08-19T06:04:02;100306.84;;;24.73;85.87
65997;BME280;52765;52.258;21.052;2022-08-19T06:06:27;100327.41;;;24.88;85.73
65997;BME280;52765;52.258;21.052;2022-08-19T06:08:53;100304.81;;;24.86;85.24
65997;BME280;52765;52.258;21.052;2022-08-19T06:11:31;100320.81;;;25.06;84.74
65997;BME280;52765;52.258;21.052;2022-08-19T06:14:00;100302.63;;;25.05;84.63
65997;BME280;52765;52.258;21.052;2022-08-19T06:16:27;100289.47;;;25.12;84.21
65997;BME280;52765;52.258;21.052;2022-08-19T06:18:54;100293.38;;;25.16;83.39
65997;BME280;52765;52.258;21.052;2022-08-19T06:21:23;100287.94;;;25.21;83.40
65997;BME280;52765;52.258;21.052;2022-08-19T06:23:51;100285.00;;;25.28;83.03
65997;BME280;52765;52.258;21.052;2022-08-19T06:26:18;100298.59;;;25.35;82.71
65997;BME280;52765;52.258;21.052;2022-08-19T06:28:45;100301.50;;;25.45;82.77
65997;BME280;52765;52.258;21.052;2022-08-19T06:31:17;100296.94;;;25.56;82.10
65997;BME280;52765;52.258;21.052;2022-08-19T06:33:43;100319.44;;;25.70;81.84
65997;BME280;52765;52.258;21.052;2022-08-19T06:36:18;100307.88;;;25.73;81.37
65997;BME280;52765;52.258;21.052;2022-08-19T06:38:43;100314.56;;;25.77;80.87
65997;BME280;52765;52.258;21.052;2022-08-19T06:41:09;100329.09;;;25.94;80.48
65997;BME280;52765;52.258;21.052;2022-08-19T06:43:35;100316.41;;;25.93;80.62
65997;BME280;52765;52.258;21.052;2022-08-19T06:46:03;100326.25;;;26.11;80.38
65997;BME280;52765;52.258;21.052;2022-08-19T06:48:29;100326.91;;;26.18;79.97
65997;BME280;52765;52.258;21.052;2022-08-19T06:50:55;100316.38;;;26.15;79.25
65997;BME280;52765;52.258;21.052;2022-08-19T06:53:21;100325.31;;;26.28;78.04
65997;BME280;52765;52.258;21.052;2022-08-19T06:55:47;100304.56;;;26.20;77.39
65997;BME280;52765;52.258;21.052;2022-08-19T06:58:12;100315.72;;;26.35;76.74
65997;BME280;52765;52.258;21.052;2022-08-19T07:00:39;100302.47;;;26.37;76.61
65997;BME280;52765;52.258;21.052;2022-08-19T07:03:04;100308.19;;;26.58;76.56
65997;BME280;52765;52.258;21.052;2022-08-19T07:05:30;100307.91;;;26.59;76.23
65997;BME280;52765;52.258;21.052;2022-08-19T07:07:55;100316.59;;;26.68;76.23
65997;BME280;52765;52.258;21.052;2022-08-19T07:10:22;100330.25;;;26.90;75.70
65997;BME280;52765;52.258;21.052;2022-08-19T07:12:47;100309.25;;;26.89;75.34
65997;BME280;52765;52.258;21.052;2022-08-19T07:15:15;100324.78;;;27.01;74.53
65997;BME280;52765;52.258;21.052;2022-08-19T07:17:41;100331.97;;;26.97;74.36
65997;BME280;52765;52.258;21.052;2022-08-19T07:20:09;100330.53;;;26.89;74.72
65997;BME280;52765;52.258;21.052;2022-08-19T07:22:39;100339.91;;;26.88;75.29
65997;BME280;52765;52.258;21.052;2022-08-19T07:25:07;100345.44;;;26.88;74.78
65997;BME280;52765;52.258;21.052;2022-08-19T07:27:34;100319.44;;;26.84;75.08
65997;BME280;52765;52.258;21.052;2022-08-19T07:30:00;100321.44;;;26.93;74.92
65997;BME280;52765;52.258;21.052;2022-08-19T07:32:25;100324.00;;;27.05;74.79
65997;BME280;52765;52.258;21.052;2022-08-19T07:34:56;100328.47;;;27.11;74.87
65997;BME280;52765;52.258;21.052;2022-08-19T07:37:25;100312.44;;;27.13;75.05
65997;BME280;52765;52.258;21.052;2022-08-19T07:39:52;100286.38;;;27.04;74.74
65997;BME280;52765;52.258;21.052;2022-08-19T07:42:17;100285.31;;;27.05;74.44
65997;BME280;52765;52.258;21.052;2022-08-19T07:44:45;100298.88;;;27.12;74.69
65997;BME280;52765;52.258;21.052;2022-08-19T07:47:11;100315.53;;;27.27;74.25
65997;BME280;52765;52.258;21.052;2022-08-19T07:49:39;100309.53;;;27.36;74.34
65997;BME280;52765;52.258;21.052;2022-08-19T07:52:08;100319.53;;;27.47;73.81
65997;BME280;52765;52.258;21.052;2022-08-19T07:54:36;100326.50;;;27.55;73.10
65997;BME280;52765;52.258;21.052;2022-08-19T07:57:03;100328.69;;;27.53;73.18
65997;BME280;52765;52.258;21.052;2022-08-19T07:59:29;100329.00;;;27.61;73.01
65997;BME280;52765;52.258;21.052;2022-08-19T08:01:56;100327.09;;;27.67;72.42
65997;BME280;52765;52.258;21.052;2022-08-19T08:04:21;100323.75;;;27.65;72.85
65997;BME280;52765;52.258;21.052;2022-08-19T08:07:06;100306.91;;;27.66;72.45
65997;BME280;52765;52.258;21.052;2022-08-19T08:09:51;100305.25;;;27.76;72.38
65997;BME280;52765;52.258;21.052;2022-08-19T08:12:26;100301.94;;;27.79;72.01
65997;BME280;52765;52.258;21.052;2022-08-19T08:14:58;100308.28;;;27.74;72.29
65997;BME280;52765;52.258;21.052;2022-08-19T08:17:26;100313.56;;;27.81;72.31
65997;BME280;52765;52.258;21.052;2022-08-19T08:19:53;100322.44;;;27.83;71.71
65997;BME280;52765;52.258;21.052;2022-08-19T08:22:20;100318.56;;;27.84;71.81
65997;BME280;52765;52.258;21.052;2022-08-19T08:25:09;100306.38;;;27.80;71.25
65997;BME280;52765;52.258;21.052;2022-08-19T08:27:37;100313.56;;;27.91;70.80
65997;BME280;52765;52.258;21.052;2022-08-19T08:30:06;100318.28;;;27.91;71.64
65997;BME280;52765;52.258;21.052;2022-08-19T08:32:35;100315.00;;;27.94;71.34
65997;BME280;52765;52.258;21.052;2022-08-19T08:35:01;100321.38;;;27.99;71.21
65997;BME280;52765;52.258;21.052;2022-08-19T08:37:27;100323.06;;;28.00;70.33
65997;BME280;52765;52.258;21.052;2022-08-19T08:39:52;100331.66;;;28.09;70.59
65997;BME280;52765;52.258;21.052;2022-08-19T08:42:33;100329.19;;;28.18;70.12
65997;BME280;52765;52.258;21.052;2022-08-19T08:45:13;100329.19;;;28.23;69.41
65997;BME280;52765;52.258;21.052;2022-08-19T08:47:43;100320.03;;;28.33;68.94
65997;BME280;52765;52.258;21.052;2022-08-19T08:50:32;100317.00;;;28.50;68.70
65997;BME280;52765;52.258;21.052;2022-08-19T08:53:01;100317.31;;;28.58;69.14
65997;BME280;52765;52.258;21.052;2022-08-19T08:55:30;100312.03;;;28.67;68.00
65997;BME280;52765;52.258;21.052;2022-08-19T08:58:04;100302.59;;;28.73;67.38
65997;BME280;52765;52.258;21.052;2022-08-19T09:00:37;100323.38;;;28.86;66.75
65997;BME280;52765;52.258;21.052;2022-08-19T09:03:07;100339.97;;;29.02;66.61
65997;BME280;52765;52.258;21.052;2022-08-19T09:06:02;100349.66;;;29.09;65.53
65997;BME280;52765;52.258;21.052;2022-08-19T09:09:04;100343.81;;;29.16;65.17
65997;BME280;52765;52.258;21.052;2022-08-19T09:16:58;100338.84;;;29.23;63.19
65997;BME280;52765;52.258;21.052;2022-08-19T09:19:24;100345.47;;;29.32;63.32
65997;BME280;52765;52.258;21.052;2022-08-19T09:21:51;100342.97;;;29.31;63.15
65997;BME280;52765;52.258;21.052;2022-08-19T09:24:16;100339.91;;;29.38;63.01
65997;BME280;52765;52.258;21.052;2022-08-19T09:26:42;100342.06;;;29.51;62.87
65997;BME280;52765;52.258;21.052;2022-08-19T09:29:09;100314.63;;;29.44;62.67
65997;BME280;52765;52.258;21.052;2022-08-19T09:31:36;100334.50;;;29.67;62.01
65997;BME280;52765;52.258;21.052;2022-08-19T09:34:02;100322.56;;;29.71;62.45
65997;BME280;52765;52.258;21.052;2022-08-19T09:36:30;100339.19;;;29.82;61.64
65997;BME280;52765;52.258;21.052;2022-08-19T09:38:58;100328.09;;;29.82;60.39
65997;BME280;52765;52.258;21.052;2022-08-19T09:41:25;100335.50;;;29.97;60.77
65997;BME280;52765;52.258;21.052;2022-08-19T09:43:53;100318.59;;;29.93;58.99
65997;BME280;52765;52.258;21.052;2022-08-19T09:46:22;100341.47;;;30.14;59.23
65997;BME280;52765;52.258;21.052;2022-08-19T09:48:49;100345.06;;;30.20;58.28
65997;BME280;52765;52.258;21.052;2022-08-19T09:51:19;100353.63;;;30.29;57.51
65997;BME280;52765;52.258;21.052;2022-08-19T09:53:47;100358.59;;;30.32;56.85
65997;BME280;52765;52.258;21.052;2022-08-19T09:56:16;100342.16;;;30.35;56.18
65997;BME280;52765;52.258;21.052;2022-08-19T09:58:41;100347.69;;;30.46;55.68
65997;BME280;52765;52.258;21.052;2022-08-19T10:01:08;100347.06;;;30.54;55.32
65997;BME280;52765;52.258;21.052;2022-08-19T10:03:35;100317.09;;;30.46;54.68
65997;BME280;52765;52.258;21.052;2022-08-19T10:06:04;100332.47;;;30.67;54.16
65997;BME280;52765;52.258;21.052;2022-08-19T10:08:35;100332.66;;;30.81;53.03
65997;BME280;52765;52.258;21.052;2022-08-19T10:11:03;100332.00;;;30.89;52.59
65997;BME280;52765;52.258;21.052;2022-08-19T10:13:30;100332.75;;;31.00;51.57
65997;BME280;52765;52.258;21.052;2022-08-19T10:16:09;100327.31;;;31.14;51.63
65997;BME280;52765;52.258;21.052;2022-08-19T10:18:36;100312.88;;;31.12;50.30
65997;BME280;52765;52.258;21.052;2022-08-19T10:21:13;100314.88;;;31.30;50.25
65997;BME280;52765;52.258;21.052;2022-08-19T10:23:41;100297.44;;;31.25;49.96
65997;BME280;52765;52.258;21.052;2022-08-19T10:26:09;100312.34;;;31.34;49.36
65997;BME280;52765;52.258;21.052;2022-08-19T10:28:36;100310.25;;;31.45;49.32
65997;BME280;52765;52.258;21.052;2022-08-19T10:31:10;100310.19;;;31.50;48.99
65997;BME280;52765;52.258;21.052;2022-08-19T10:33:37;100294.31;;;31.50;48.54
65997;BME280;52765;52.258;21.052;2022-08-19T10:36:06;100307.63;;;31.78;47.54
65997;BME280;52765;52.258;21.052;2022-08-19T10:38:36;100292.13;;;31.71;47.39
65997;BME280;52765;52.258;21.052;2022-08-19T10:41:14;100307.72;;;31.91;46.39
65997;BME280;52765;52.258;21.052;2022-08-19T10:43:47;100290.00;;;31.82;46.83
65997;BME280;52765;52.258;21.052;2022-08-19T10:46:16;100300.94;;;31.98;46.68
65997;BME280;52765;52.258;21.052;2022-08-19T10:48:43;100308.56;;;32.11;46.32
65997;BME280;52765;52.258;21.052;2022-08-19T10:51:09;100313.47;;;32.19;45.57
65997;BME280;52765;52.258;21.052;2022-08-19T10:53:54;100315.91;;;32.21;45.53
65997;BME280;52765;52.258;21.052;2022-08-19T10:56:20;100311.53;;;32.34;44.97
65997;BME280;52765;52.258;21.052;2022-08-19T10:59:05;100288.72;;;32.32;44.88
65997;BME280;52765;52.258;21.052;2022-08-19T11:01:34;100301.91;;;32.59;44.08
65997;BME280;52765;52.258;21.052;2022-08-19T11:04:30;100294.31;;;32.64;43.00
65997;BME280;52765;52.258;21.052;2022-08-19T11:06:57;100301.75;;;32.69;43.83
65997;BME280;52765;52.258;21.052;2022-08-19T11:09:25;100302.41;;;32.80;43.07
65997;BME280;52765;52.258;21.052;2022-08-19T11:11:51;100303.72;;;32.82;43.36
65997;BME280;52765;52.258;21.052;2022-08-19T11:14:19;100286.94;;;32.88;42.80
65997;BME280;52765;52.258;21.052;2022-08-19T11:16:45;100283.31;;;33.01;43.03
65997;BME280;52765;52.258;21.052;2022-08-19T11:19:12;100288.00;;;33.19;43.42
65997;BME280;52765;52.258;21.052;2022-08-19T11:21:43;100280.31;;;33.39;43.10
65997;BME280;52765;52.258;21.052;2022-08-19T11:24:13;100276.34;;;33.54;42.78
65997;BME280;52765;52.258;21.052;2022-08-19T11:26:40;100270.16;;;33.57;42.22
65997;BME280;52765;52.258;21.052;2022-08-19T11:29:07;100272.19;;;33.65;41.54
65997;BME280;52765;52.258;21.052;2022-08-19T11:31:38;100265.50;;;33.66;41.45
65997;BME280;52765;52.258;21.052;2022-08-19T11:34:07;100255.34;;;33.70;41.72
65997;BME280;52765;52.258;21.052;2022-08-19T11:36:34;100249.88;;;33.79;41.70
65997;BME280;52765;52.258;21.052;2022-08-19T11:39:02;100268.88;;;33.91;41.68
65997;BME280;52765;52.258;21.052;2022-08-19T11:41:28;100264.78;;;33.97;40.75
65997;BME280;52765;52.258;21.052;2022-08-19T11:43:53;100264.91;;;33.92;40.62
65997;BME280;52765;52.258;21.052;2022-08-19T11:46:21;100253.34;;;33.85;40.99
65997;BME280;52765;52.258;21.052;2022-08-19T11:48:48;100263.59;;;33.89;40.58
65997;BME280;52765;52.258;21.052;2022-08-19T11:51:18;100262.44;;;33.90;40.89
65997;BME280;52765;52.258;21.052;2022-08-19T11:53:44;100261.31;;;33.91;40.95
65997;BME280;52765;52.258;21.052;2022-08-19T11:56:11;100253.47;;;34.02;40.94
65997;BME280;52765;52.258;21.052;2022-08-19T11:58:37;100230.91;;;34.13;40.10
65997;BME280;52765;52.258;21.052;2022-08-19T12:01:10;100240.78;;;34.41;40.42
65997;BME280;52765;52.258;21.052;2022-08-19T12:03:37;100231.03;;;34.61;39.44
65997;BME280;52765;52.258;21.052;2022-08-19T12:06:05;100223.25;;;34.81;39.38
65997;BME280;52765;52.258;21.052;2022-08-19T12:08:31;100230.56;;;34.99;38.46
65997;BME280;52765;52.258;21.052;2022-08-19T12:10:56;100219.38;;;34.99;38.22
65997;BME280;52765;52.258;21.052;2022-08-19T12:13:22;100216.91;;;35.07;37.19
65997;BME280;52765;52.258;21.052;2022-08-19T12:15:47;100224.34;;;35.20;37.74
65997;BME280;52765;52.258;21.052;2022-08-19T12:18:14;100214.69;;;35.35;37.62
65997;BME280;52765;52.258;21.052;2022-08-19T12:20:43;100223.59;;;35.46;37.17
65997;BME280;52765;52.258;21.052;2022-08-19T12:23:10;100221.63;;;35.46;36.41
65997;BME280;52765;52.258;21.052;2022-08-19T12:25:42;100208.13;;;35.48;36.34
65997;BME280;52765;52.258;21.052;2022-08-19T12:28:13;100210.94;;;35.66;36.68
65997;BME280;52765;52.258;21.052;2022-08-19T12:30:38;100210.94;;;35.83;36.40
65997;BME280;52765;52.258;21.052;2022-08-19T12:33:04;100214.25;;;35.77;36.18
65997;BME280;52765;52.258;21.052;2022-08-19T12:35:30;100205.16;;;35.88;36.67
65997;BME280;52765;52.258;21.052;2022-08-19T12:37:56;100209.75;;;36.10;36.51
65997;BME280;52765;52.258;21.052;2022-08-19T12:40:21;100209.41;;;36.12;35.50
65997;BME280;52765;52.258;21.052;2022-08-19T12:42:47;100202.84;;;36.08;35.02
65997;BME280;52765;52.258;21.052;2022-08-19T12:45:16;100193.44;;;36.04;35.49
65997;BME280;52765;52.258;21.052;2022-08-19T12:47:41;100195.72;;;36.10;35.65
65997;BME280;52765;52.258;21.052;2022-08-19T12:50:08;100190.47;;;36.18;35.27